Pablo, MT (59855)

9:20 PM MDT on July 06, 2015 (GMT -0600)
Monte's Place 2 | | Change Station
CLOSE
Current Station
Personal Weather Station
Location: Ronan, MT
Elevation: 3125 ft
Nearby Weather Stations
Active Advisory: Fire Weather Watch

Elev 3125 ft 47.62 °N, 114.10 °W | Updated 5 seconds ago

Clear
Clear
70.8 °F
Feels Like 77 °F
N
0.0
Wind Variable Wind from North
Gusts 0.0 mph

Today
High -- | Low -- °F
--% Chance of Precip.
Yesterday
High -- | Low -- °F
Precip. -- in
5:46 AM 9:36 PM
Waning Gibbous, 69% visible
Pressure 29.97 in
Visibility 10.0 miles
Clouds Clear
Heat Index 77 °F
Dew Point 42 °F
Humidity 36%
Rainfall 0.00 in
Snow Depth Not available.
UV 0.0 out of 12
Pollen 5.50 out of 12
Air Quality Not available.
Flu Activity Not available.
METAR KMSO 070253Z 00000KT 10SM CLR 25/M03 A3002 RMK AO2 SLP147 T02501028 56009

More Conditions Fewer Conditions

Pressure 29.97 in
Visibility 10.0 miles
Clouds Clear
Heat Index 77 °F
Dew Point 42 °F
Humidity 36%
Rainfall 0.00 in
Snow Depth Not available.
UV 0.0 out of 12
Pollen 5.50 out of 12
Air Quality Not available.
Flu Activity Not available.
METAR KMSO 070253Z 00000KT 10SM CLR 25/M03 A3002 RMK AO2 SLP147 T02501028 56009

More Conditions Fewer Conditions

10-Day Weather Forecast

×

Almanac

Astronomy

Jul. 06, 2015 Rise Set
Actual Time
Civil Twilight
Nautical Twilight
Astronomical Twilight
Moon
Length of Visible Light
Length of Day
Tomorrow will be .
, % of the Moon is Illuminated

Today's Extremes

State Highs State Lows

Community

WunderPhotos

Upload Photos

1,835,706 photos uploaded!

WunderBlogs® & News

Nearby

Air Quality

  Air Quality AQ Index Pollutant
Not available.

Snow Depth

Station Depth Elevation

Earthquake Activity

City Distance Mag. Time & Date
Minimum magnitude displayed is 2.5.

Coastal Water Temperatures

Place Temperature

Stations

Nearby Weather Stations

Station Location Temp. Windchill Dew Point Humidity Wind Precip. Elev Updated Type
                   
Fire Weather Watch
Statement as of 1:47 PM MDT on July 06, 2015

... Fire Weather Watch remains in effect from Tuesday afternoon
through Tuesday evening for thunderstorms across the Kootenai...

A Fire Weather Watch remains in effect from Tuesday afternoon
through Tuesday evening.

* Thunderstorms: scattered thunderstorms are expected to develop
over the higher terrain of far northwest Montana early Tuesday
afternoon and spread southeastward with lower elevations
seeing more isolated coverage. Although some storms may
produce wetting rains... given the recent dryness any
lightning strikes outside of the main rain cores will present
concerns for fire starts. Thunderstorm activity is expected to
quickly dissipate around or just after sunset.

* Winds: gusty and erratic winds are possible with storms.

Precautionary/preparedness actions...

A Fire Weather Watch means that critical fire weather conditions
are forecast to occur. Listen for later forecasts and possible
red flag warnings.